Angola, Kansas
Current Conditions -  °F | °C
As of 10:38 AM on Friday 21 Nov 2014 (Local Time) from KCFV Reporting Station
Moderate Rain Moderate Rain  
Wind Chill: 43°   Ceiling: 1300
Heat Index: 47°   Visibility: 1.7mi
Dew Point: 45°   Wind: 8mph
Humidity: 93%   Direction: 120°ESE
Pressure: 30.15"   Gusts: NA
Location:  37.067°N, 95.5817°W
Report Text: KCFV 211638Z AUTO 12007KT 1 3/4SM RA BR BKN013 OVC030 08/07 A3015 RMK AO2 T00830072 PNO $
Loading
Personal Weather Stations






























Interactive Weather Map New forecast layout! Learn more

10-Day Weather Forecast

Advertisements
Track Severe Weather on mobile